Ana Sayfa
METAR-TAF:

METAR-TAF

Havaalanları :

Linz, Avusturya

Enlem: 48-14N, Boylam: 014-11E, yükseklik: 298 m

Güncel hava durumu gözlemi

Rapor saat 05:20 UTC de 20 dakika önce yapıldı.
Rüzgar güneydoğudan 2 kt
Sıcaklık -3°C
Nem 86%
Basınç 1024 hPa
Görüş mesafesi 10 km veya daha fazla
1500 m altında bulut yok ve kümülonimbus yok

METAR: LOWL 010520Z 14002KT CAVOK M03/M05 Q1024 NOSIG

Saat: 07:40 (05:40 UTC)

Tahmin

Rapor saat 05:15 UTC de 25 dakika önce yapıldı.
Ayın 01'si saat 06 UTC'den ayın 02'si saat 06 UTC'ye kadar geçerli Tahmin
Rüzgar doğu/kuzeydoğudan 5 kt
Görüş mesafesi 10 km veya daha fazla
1500 m altında bulut yok ve kümülonimbus yok
Geçici
ayın 02'si saat 03 UTC'den ayın 02'si saat 06 UTC'ye kadar
Sığ sis

TAF: LOWL 010515Z 0106/0206 07005KT CAVOK TX08/0115Z TNM04/0204Z TEMPO 0203/0206 MIFG

4.000'den fazla havaalanı için hava durumu gözlemleri ve tahminleri (METAR ve TAF raporları).

Kullanılabilir istasyonlar harita üzerinde sarı ve kırmızı noktalarla gösterilir.

İstasyonun adını görmek için fareyi noktanın üzerinde gezdirin.

Sonrasında hava gözlem ve tahminlerini görmek için tıklayın.

Haritayı değiştirmek için: yaklaştırmak için siyah artı işaretli yeşil düğmeye ve uzaklaştırmak için de eksi işaretli düğmeye hızla tıklayın; bitişik haritalar için yeşil okları kullanın.


METAR-TAF: